Time;durP1;ratioP1;P1;durP2;ratioP2;P2;SDS_P1;SDS_P2;PMS_P1;PMS_P2;Temp;Humidity;BMP_temperature;BMP_pressure;BME280_temperature;BME280_humidity;BME280_pressure;Samples;Min_cycle;Max_cycle;Signal;HPM_P1;HPM_P2
2021/03/27 00:02:06;;;;;;;62.38;39.47;;;8.80;99.90;;;;;;4928114;29;20056;-79
2021/03/27 00:05:09;;;;;;;61.13;39.05;;;8.80;99.90;;;;;;4926107;29;20043;-76
2021/03/27 00:08:00;;;;;;;57.70;39.13;;;8.80;99.90;;;;;;4927927;29;20119;-77
2021/03/27 00:11:30;;;;;;;64.63;41.00;;;8.80;99.90;;;;;;4922945;29;20059;-77
2021/03/27 00:14:04;;;;;;;57.53;38.83;;;8.70;99.90;;;;;;4925266;29;20034;-78
2021/03/27 00:16:39;;;;;;;61.05;39.90;;;8.70;99.90;;;;;;4940110;29;20138;-79
2021/03/27 00:19:31;;;;;;;59.78;39.70;;;8.70;99.90;;;;;;4936220;29;20043;-77
2021/03/27 00:22:03;;;;;;;57.88;37.40;;;8.70;99.90;;;;;;4920002;29;20074;-80
2021/03/27 00:25:07;;;;;;;60.38;39.25;;;8.60;99.90;;;;;;4932880;29;20035;-77
2021/03/27 00:27:44;;;;;;;57.22;38.25;;;8.60;99.90;;;;;;4942934;29;20035;-80
2021/03/27 00:30:16;;;;;;;57.80;37.42;;;8.60;99.90;;;;;;4925051;29;20054;-78
2021/03/27 00:32:52;;;;;;;60.08;39.25;;;8.60;99.90;;;;;;4938487;29;20024;-78
2021/03/27 00:35:29;;;;;;;55.30;37.33;;;8.60;99.90;;;;;;4931909;29;20044;-77
2021/03/27 00:37:59;;;;;;;57.42;38.92;;;8.60;99.90;;;;;;4923931;29;20087;-78
2021/03/27 00:40:27;;;;;;;56.03;36.47;;;8.60;99.90;;;;;;4928126;29;20028;-76
2021/03/27 00:43:06;;;;;;;56.90;38.08;;;8.60;99.90;;;;;;4935165;29;20028;-77
2021/03/27 00:45:53;;;;;;;57.13;37.72;;;8.60;99.90;;;;;;4927049;29;20044;-77
2021/03/27 00:48:27;;;;;;;57.08;36.53;;;8.60;99.90;;;;;;4930975;29;20035;-77
2021/03/27 00:51:23;;;;;;;60.25;38.00;;;8.60;99.90;;;;;;4918181;29;20396;-77
2021/03/27 00:54:04;;;;;;;56.63;35.70;;;8.60;99.90;;;;;;4922934;29;20107;-77
2021/03/27 00:56:38;;;;;;;62.30;40.07;;;8.60;99.90;;;;;;4919684;29;20402;-76
2021/03/27 00:59:08;;;;;;;55.13;36.30;;;8.60;99.90;;;;;;4934530;29;20051;-79
2021/03/27 01:01:39;;;;;;;56.03;37.53;;;8.60;99.90;;;;;;4933295;29;20028;-76
2021/03/27 01:04:15;;;;;;;53.40;37.20;;;8.60;99.90;;;;;;4937445;29;20443;-77
2021/03/27 01:06:54;;;;;;;55.97;37.08;;;8.60;99.90;;;;;;4934338;29;20101;-76
2021/03/27 01:09:41;;;;;;;57.97;37.47;;;8.60;99.90;;;;;;4928187;29;20052;-75
2021/03/27 01:12:13;;;;;;;49.60;34.42;;;8.60;99.90;;;;;;4927092;29;20028;-77
2021/03/27 01:14:47;;;;;;;55.97;35.70;;;8.60;99.90;;;;;;4927776;29;20035;-77
2021/03/27 01:17:17;;;;;;;56.30;35.67;;;8.70;99.90;;;;;;4940791;29;20039;-78
2021/03/27 01:19:47;;;;;;;54.67;35.38;;;8.70;99.90;;;;;;4942020;29;20051;-77
2021/03/27 01:22:17;;;;;;;54.92;36.78;;;8.70;99.90;;;;;;4933376;29;20051;-75
2021/03/27 01:24:43;;;;;;;53.72;34.50;;;8.60;99.90;;;;;;4947030;29;20004;-77
2021/03/27 01:27:33;;;;;;;55.22;37.40;;;8.50;99.90;;;;;;4950319;29;20079;-77
2021/03/27 01:30:27;;;;;;;53.80;35.72;;;8.50;99.90;;;;;;4948766;29;20043;-77
2021/03/27 01:33:37;;;;;;;57.78;36.17;;;8.50;99.90;;;;;;4944126;29;20047;-77
2021/03/27 01:36:13;;;;;;;57.50;36.83;;;8.40;99.90;;;;;;4875956;29;20037;-76
2021/03/27 01:39:00;;;;;;;52.83;34.50;;;8.40;99.90;;;;;;4879440;29;20093;-76
2021/03/27 01:41:32;;;;;;;55.13;35.80;;;8.40;99.90;;;;;;4940695;29;20024;-77
2021/03/27 01:44:12;;;;;;;52.80;35.08;;;8.30;99.90;;;;;;4941481;29;20096;-76
2021/03/27 01:47:15;;;;;;;53.67;35.53;;;8.30;99.90;;;;;;4937999;29;20063;-77
2021/03/27 01:49:57;;;;;;;58.10;36.00;;;8.30;99.90;;;;;;4938818;29;20040;-75
2021/03/27 01:52:52;;;;;;;54.97;36.88;;;8.20;99.90;;;;;;4926072;29;20035;-76
2021/03/27 01:55:43;;;;;;;56.67;35.28;;;8.20;99.90;;;;;;4910551;29;20024;-86
2021/03/27 01:58:30;;;;;;;52.25;34.17;;;8.20;99.90;;;;;;4935590;29;20036;-76
2021/03/27 02:01:05;;;;;;;51.67;34.38;;;8.20;99.90;;;;;;4914073;29;20028;-76
2021/03/27 02:03:41;;;;;;;54.92;35.20;;;8.20;99.90;;;;;;4927913;29;20028;-78
2021/03/27 02:06:30;;;;;;;55.10;33.30;;;8.10;99.90;;;;;;4930826;29;20043;-75
2021/03/27 02:09:03;;;;;;;51.95;32.60;;;8.10;99.90;;;;;;4924704;29;20052;-76
2021/03/27 02:12:10;;;;;;;49.25;33.63;;;8.00;99.90;;;;;;4914486;29;20044;-77
2021/03/27 02:15:04;;;;;;;47.80;29.13;;;8.10;99.90;;;;;;4921756;29;20031;-77
2021/03/27 02:17:52;;;;;;;49.92;32.33;;;8.10;99.90;;;;;;4918939;29;20482;-74
2021/03/27 02:20:54;;;;;;;44.13;29.33;;;8.10;99.90;;;;;;4915111;29;20084;-74
2021/03/27 02:23:35;;;;;;;44.63;29.90;;;8.10;99.90;;;;;;4919535;29;20080;-76
2021/03/27 02:26:37;;;;;;;46.00;28.80;;;8.10;99.90;;;;;;4911410;29;20038;-76
2021/03/27 02:29:27;;;;;;;47.70;29.92;;;8.10;99.90;;;;;;4914426;29;20119;-77
2021/03/27 02:32:14;;;;;;;49.20;30.17;;;8.10;99.90;;;;;;4911554;29;20071;-78
2021/03/27 02:34:53;;;;;;;46.08;29.00;;;8.10;99.90;;;;;;4918791;29;20035;-77
2021/03/27 02:37:30;;;;;;;45.67;31.17;;;8.10;99.90;;;;;;4916820;29;20153;-76
2021/03/27 02:40:25;;;;;;;46.67;29.85;;;8.10;99.90;;;;;;4919981;29;20545;-79
2021/03/27 02:43:04;;;;;;;45.28;30.00;;;8.10;99.90;;;;;;4923948;29;20039;-76
2021/03/27 02:45:59;;;;;;;43.28;28.83;;;8.10;99.90;;;;;;4915574;29;20044;-76
2021/03/27 02:48:46;;;;;;;39.50;27.60;;;8.10;99.90;;;;;;4921386;29;20034;-75
2021/03/27 02:51:51;;;;;;;42.05;28.33;;;8.10;99.90;;;;;;4917686;29;20028;-75
2021/03/27 02:54:35;;;;;;;39.25;26.77;;;8.10;99.90;;;;;;4905117;29;20100;-73
2021/03/27 02:57:16;;;;;;;41.17;27.27;;;8.10;99.90;;;;;;4925090;29;20106;-76
2021/03/27 03:00:10;;;;;;;41.63;28.33;;;8.10;99.90;;;;;;4910050;29;20111;-77
2021/03/27 03:03:11;;;;;;;42.00;27.10;;;8.20;99.90;;;;;;4919887;29;20384;-78
2021/03/27 03:05:45;;;;;;;42.60;28.42;;;8.20;99.90;;;;;;4922788;29;20048;-82
2021/03/27 03:08:41;;;;;;;41.53;28.33;;;8.20;99.90;;;;;;4914848;29;20114;-73
2021/03/27 03:11:14;;;;;;;40.75;26.92;;;11.90;99.90;;;;;;4921538;29;20039;-75
2021/03/27 03:13:43;;;;;;;39.75;26.75;;;8.20;99.90;;;;;;4925320;29;20063;-75
2021/03/27 03:16:36;;;;;;;37.28;25.88;;;8.20;99.90;;;;;;4925883;29;20032;-78
2021/03/27 03:19:20;;;;;;;36.25;25.42;;;8.20;99.90;;;;;;4899617;29;20048;-75
2021/03/27 03:21:56;;;;;;;44.25;27.42;;;8.20;99.90;;;;;;4913122;29;20533;-74
2021/03/27 03:24:32;;;;;;;47.40;30.80;;;8.30;99.90;;;;;;4918434;29;20028;-74
2021/03/27 03:27:06;;;;;;;39.22;25.33;;;8.30;99.90;;;;;;4914092;29;20378;-74
2021/03/27 03:29:48;;;;;;;36.47;25.42;;;8.30;99.90;;;;;;4916938;29;20041;-74
2021/03/27 03:32:29;;;;;;;40.25;25.35;;;8.30;99.90;;;;;;4922412;29;20474;-77
2021/03/27 03:35:08;;;;;;;41.23;26.27;;;8.40;99.90;;;;;;4923575;29;20028;-75
2021/03/27 03:38:18;;;;;;;38.80;26.17;;;8.40;99.90;;;;;;4921851;29;20268;-77
2021/03/27 03:41:05;;;;;;;39.60;27.08;;;8.40;99.90;;;;;;4853415;29;20036;-79
2021/03/27 03:43:52;;;;;;;40.95;27.85;;;8.40;99.90;;;;;;4917744;29;20115;-74
2021/03/27 03:46:28;;;;;;;43.13;26.75;;;8.40;99.90;;;;;;4909824;29;20112;-79
2021/03/27 03:49:14;;;;;;;39.05;26.02;;;8.40;99.90;;;;;;4914771;29;20039;-74
2021/03/27 03:51:46;;;;;;;38.30;26.05;;;8.50;99.90;;;;;;4924643;29;20183;-77
2021/03/27 03:54:39;;;;;;;39.80;26.65;;;8.40;99.90;;;;;;4921619;29;20119;-73
2021/03/27 03:57:21;;;;;;;41.95;27.58;;;8.30;99.90;;;;;;4917309;29;20072;-79
2021/03/27 03:59:55;;;;;;;;;;;8.30;99.90;;;;;;4923057;29;20904;-74
2021/03/27 04:02:36;;;;;;;38.88;26.52;;;8.40;99.90;;;;;;4924031;29;19918;-78
2021/03/27 04:05:18;;;;;;;33.88;25.33;;;8.30;99.90;;;;;;4934141;29;20036;-76
2021/03/27 04:07:51;;;;;;;37.85;27.08;;;8.40;99.90;;;;;;4930204;29;20025;-75
2021/03/27 04:10:22;;;;;;;40.05;26.08;;;8.40;99.90;;;;;;4925941;29;20161;-74
2021/03/27 04:13:09;;;;;;;40.22;27.05;;;8.40;99.90;;;;;;4930512;29;20039;-78
2021/03/27 04:15:46;;;;;;;38.75;24.65;;;8.40;99.90;;;;;;4929406;29;20078;-76
2021/03/27 04:18:27;;;;;;;39.78;26.33;;;8.40;99.90;;;;;;4938488;29;20509;-75
2021/03/27 04:21:15;;;;;;;41.60;26.80;;;8.40;99.90;;;;;;4931774;29;20032;-76
2021/03/27 04:24:02;;;;;;;41.90;25.88;;;8.40;99.90;;;;;;4935661;29;20398;-75
2021/03/27 04:26:28;;;;;;;38.33;25.33;;;8.50;99.90;;;;;;4933274;29;20032;-77
2021/03/27 04:29:25;;;;;;;39.15;27.23;;;8.40;99.90;;;;;;4941619;29;20036;-74
2021/03/27 04:32:06;;;;;;;37.17;25.30;;;8.40;99.90;;;;;;4925384;29;20040;-74
2021/03/27 04:34:57;;;;;;;39.03;26.37;;;8.40;99.90;;;;;;4927944;29;20028;-74
2021/03/27 04:38:04;;;;;;;37.20;25.05;;;8.30;99.90;;;;;;4906114;29;20411;-73
2021/03/27 04:40:37;;;;;;;35.25;25.50;;;8.30;99.90;;;;;;4903154;29;20040;-75
2021/03/27 04:43:23;;;;;;;38.58;26.02;;;8.40;99.90;;;;;;4932570;29;20047;-76
2021/03/27 04:45:55;;;;;;;37.95;25.17;;;8.30;99.90;;;;;;4928568;29;20073;-80
2021/03/27 04:48:31;;;;;;;36.83;25.08;;;8.40;99.90;;;;;;4922586;29;20036;-75
2021/03/27 04:51:20;;;;;;;39.88;25.73;;;8.40;99.90;;;;;;4926640;29;20040;-75
2021/03/27 04:53:52;;;;;;;33.60;24.13;;;8.30;99.90;;;;;;4926383;29;20038;-75
2021/03/27 04:56:40;;;;;;;38.13;24.25;;;8.30;99.90;;;;;;4926797;29;20040;-75
2021/03/27 04:59:24;;;;;;;35.55;25.00;;;8.20;99.90;;;;;;4922503;29;20017;-74
2021/03/27 05:02:12;;;;;;;34.78;23.05;;;8.20;99.90;;;;;;4928033;29;20487;-76
2021/03/27 05:05:19;;;;;;;35.58;22.70;;;8.20;99.90;;;;;;4923069;29;20039;-75
2021/03/27 05:07:59;;;;;;;34.42;21.90;;;8.20;99.90;;;;;;4919134;29;20116;-74
2021/03/27 05:10:49;;;;;;;35.55;23.55;;;8.20;99.90;;;;;;4922333;29;20024;-75
2021/03/27 05:13:40;;;;;;;35.70;21.75;;;8.20;99.90;;;;;;4918193;29;20032;-79
2021/03/27 05:16:27;;;;;;;31.90;22.55;;;8.30;99.90;;;;;;4919984;29;20036;-74
2021/03/27 05:19:12;;;;;;;36.88;21.67;;;8.40;99.90;;;;;;4924139;29;20027;-78
2021/03/27 05:21:38;;;;;;;33.42;21.17;;;8.40;99.90;;;;;;4919632;29;20481;-74
2021/03/27 05:24:21;;;;;;;34.42;22.50;;;8.50;99.90;;;;;;4923028;29;20039;-73
2021/03/27 05:26:57;;;;;;;30.90;20.88;;;8.60;99.90;;;;;;4916994;29;20028;-76
2021/03/27 05:29:31;;;;;;;29.38;20.63;;;8.70;99.90;;;;;;4918188;29;20032;-74
2021/03/27 05:32:03;;;;;;;32.67;22.05;;;8.70;99.90;;;;;;4915105;29;20071;-73
2021/03/27 05:34:41;;;;;;;33.13;21.08;;;8.80;99.90;;;;;;4921553;29;20031;-73
2021/03/27 05:37:33;;;;;;;32.58;20.30;;;8.90;99.90;;;;;;4925376;29;20425;-73
2021/03/27 05:40:17;;;;;;;;;;;8.90;99.90;;;;;;4922537;29;20032;-73
2021/03/27 05:42:55;;;;;;;29.15;18.52;;;9.00;99.90;;;;;;4925161;29;19925;-73
2021/03/27 05:46:05;;;;;;;25.63;18.20;;;9.10;99.90;;;;;;4923298;29;20047;-75
2021/03/27 05:48:48;;;;;;;28.75;20.27;;;9.20;99.90;;;;;;4906284;29;20072;-73
2021/03/27 05:52:02;;;;;;;26.02;18.45;;;9.20;99.90;;;;;;4920745;29;20031;-74
2021/03/27 05:54:55;;;;;;;27.38;18.63;;;9.30;99.90;;;;;;4905923;29;20126;-76
2021/03/27 05:57:45;;;;;;;27.25;18.77;;;9.50;99.90;;;;;;4921242;29;20493;-73
2021/03/27 06:00:45;;;;;;;27.58;19.35;;;9.50;99.90;;;;;;4918264;29;20039;-74
2021/03/27 06:03:31;;;;;;;27.77;19.33;;;9.50;99.90;;;;;;4928528;29;20031;-72
2021/03/27 06:06:07;;;;;;;27.95;18.38;;;9.60;99.90;;;;;;4915614;29;20048;-85
2021/03/27 06:09:06;;;;;;;28.30;18.60;;;9.70;99.90;;;;;;4930106;29;20032;-79
2021/03/27 06:11:56;;;;;;;22.98;17.05;;;9.80;99.90;;;;;;4916282;29;20036;-86
2021/03/27 06:14:31;;;;;;;24.50;18.13;;;10.00;99.90;;;;;;4920955;29;20028;-73
2021/03/27 06:17:21;;;;;;;25.25;17.52;;;10.10;99.90;;;;;;4936559;29;20127;-81
2021/03/27 06:20:23;;;;;;;27.90;16.30;;;10.10;99.90;;;;;;4937727;29;20031;-77
2021/03/27 06:22:57;;;;;;;25.75;17.38;;;10.20;99.90;;;;;;4921470;29;20037;-75
2021/03/27 06:25:35;;;;;;;24.98;17.45;;;10.20;99.90;;;;;;4924986;29;20030;-78
2021/03/27 06:28:15;;;;;;;25.27;16.58;;;10.20;99.90;;;;;;4925409;29;20040;-81
2021/03/27 06:30:44;;;;;;;25.92;16.67;;;10.20;99.90;;;;;;4927209;29;20024;-82
2021/03/27 06:33:33;;;;;;;23.23;16.60;;;10.20;99.90;;;;;;4918310;29;20451;-79
2021/03/27 06:36:24;;;;;;;22.75;16.10;;;10.30;99.90;;;;;;4922793;29;20083;-77
2021/03/27 06:39:20;;;;;;;24.98;16.77;;;10.30;99.90;;;;;;4903936;29;20035;-76
2021/03/27 06:41:48;;;;;;;21.73;16.17;;;10.40;99.90;;;;;;4915771;29;20040;-74
2021/03/27 06:44:18;;;;;;;23.85;15.98;;;10.70;99.90;;;;;;4921515;29;20442;-76
2021/03/27 06:47:22;;;;;;;22.23;15.35;;;11.30;99.90;;;;;;4919316;29;20059;-77
2021/03/27 06:50:03;;;;;;;21.58;14.63;;;12.10;99.90;;;;;;4919174;29;20036;-74
2021/03/27 06:52:32;;;;;;;;;;;13.20;95.10;;;;;;4922246;29;20474;-74
2021/03/27 06:55:26;;;;;;;18.05;13.85;;;13.80;89.20;;;;;;4920855;29;20328;-74
2021/03/27 06:58:18;;;;;;;20.38;15.10;;;13.70;90.10;;;;;;4919461;29;20067;-74
2021/03/27 07:01:13;;;;;;;20.23;15.20;;;13.30;92.20;;;;;;4919827;29;20039;-74
2021/03/27 07:04:32;;;;;;;22.45;16.40;;;12.70;95.70;;;;;;4910025;29;20104;-77
2021/03/27 07:07:06;;;;;;;22.65;15.82;;;12.20;98.90;;;;;;4899468;29;20051;-76
2021/03/27 07:10:03;;;;;;;20.25;15.13;;;12.00;99.80;;;;;;4891931;29;20036;-73
2021/03/27 07:13:01;;;;;;;18.15;14.50;;;11.80;99.90;;;;;;4916524;29;20035;-75
2021/03/27 07:15:47;;;;;;;20.70;15.27;;;11.70;99.90;;;;;;4918561;29;20370;-75
2021/03/27 07:18:51;;;;;;;18.58;14.07;;;11.70;99.90;;;;;;4918257;29;20036;-73
2021/03/27 07:21:52;;;;;;;19.15;12.63;;;11.70;99.90;;;;;;4917751;29;20039;-80
2021/03/27 07:24:32;;;;;;;21.00;14.35;;;11.50;99.90;;;;;;4922504;29;20032;-74
2021/03/27 07:27:37;;;;;;;23.10;15.02;;;11.30;99.90;;;;;;4921246;29;20114;-76
2021/03/27 07:30:28;;;;;;;18.63;14.02;;;11.10;99.90;;;;;;4928048;29;20074;-76
2021/03/27 07:32:56;;;;;;;18.80;14.50;;;10.90;99.90;;;;;;4919246;29;20048;-74
2021/03/27 07:35:36;;;;;;;17.30;13.30;;;10.60;99.90;;;;;;4921726;29;20031;-78
2021/03/27 07:38:44;;;;;;;18.30;12.95;;;10.50;99.90;;;;;;4926743;29;20032;-76
2021/03/27 07:41:41;;;;;;;16.60;12.40;;;10.30;99.90;;;;;;4929353;29;20096;-73
2021/03/27 07:44:50;;;;;;;17.00;12.40;;;10.30;99.90;;;;;;4919423;29;20033;-74
2021/03/27 07:47:53;;;;;;;16.65;12.38;;;10.20;99.90;;;;;;4930727;29;20055;-78
2021/03/27 07:50:42;;;;;;;21.83;14.68;;;10.20;99.90;;;;;;4932099;29;20034;-75
2021/03/27 07:53:43;;;;;;;16.95;11.80;;;10.20;99.90;;;;;;4910468;29;20470;-74
2021/03/27 07:56:15;;;;;;;15.45;10.73;;;10.20;99.90;;;;;;4917987;29;20040;-78
2021/03/27 07:58:54;;;;;;;;;;;10.20;99.90;;;;;;4924228;29;20028;-81
2021/03/27 08:01:57;;;;;;;15.63;11.63;;;10.10;99.90;;;;;;4926486;29;19962;-77
2021/03/27 08:05:01;;;;;;;15.25;11.48;;;10.00;99.90;;;;;;4922847;29;20145;-74
2021/03/27 08:08:04;;;;;;;16.80;11.88;;;10.00;99.90;;;;;;4910192;29;20455;-79
2021/03/27 08:10:47;;;;;;;16.77;11.27;;;10.00;99.90;;;;;;4914659;29;20032;-73
2021/03/27 08:13:49;;;;;;;13.15;10.48;;;10.00;99.90;;;;;;4928530;29;20626;-77
2021/03/27 08:16:56;;;;;;;7.35;5.05;;;10.10;99.90;;;;;;4926609;29;20043;-75
2021/03/27 08:19:46;;;;;;;6.20;3.35;;;9.60;99.90;;;;;;4897223;29;20122;-74
2021/03/27 08:22:36;;;;;;;3.63;2.40;;;9.40;99.90;;;;;;4930904;29;20029;-75
2021/03/27 08:25:14;;;;;;;2.80;1.83;;;9.40;99.90;;;;;;4922641;29;20103;-77
2021/03/27 08:28:01;;;;;;;2.72;1.73;;;9.30;99.90;;;;;;4919058;29;20031;-74
2021/03/27 08:30:51;;;;;;;1.55;1.38;;;9.10;99.90;;;;;;4926338;29;20024;-74
2021/03/27 08:33:38;;;;;;;1.27;1.08;;;8.90;99.90;;;;;;4906915;29;20131;-76
2021/03/27 08:36:39;;;;;;;1.50;0.90;;;8.90;99.90;;;;;;4923980;29;20456;-74
2021/03/27 08:39:36;;;;;;;3.15;1.90;;;8.90;99.90;;;;;;4919375;29;20040;-74
2021/03/27 08:42:31;;;;;;;3.97;2.10;;;8.90;99.90;;;;;;4920040;29;20031;-74
2021/03/27 08:45:27;;;;;;;1.80;1.10;;;8.70;99.90;;;;;;4919730;29;20040;-74
2021/03/27 08:48:26;;;;;;;1.08;0.73;;;8.80;99.90;;;;;;4926393;29;20111;-74
2021/03/27 08:51:01;;;;;;;1.70;0.88;;;8.80;99.90;;;;;;4925939;29;20448;-75
2021/03/27 08:53:49;;;;;;;1.30;1.00;;;8.60;99.90;;;;;;4915908;29;20686;-74
2021/03/27 08:56:33;;;;;;;3.08;1.60;;;8.50;99.90;;;;;;4919268;29;20517;-78
2021/03/27 08:59:17;;;;;;;2.88;1.45;;;8.40;99.90;;;;;;4915341;29;20036;-77
2021/03/27 09:01:59;;;;;;;1.80;1.45;;;8.20;99.90;;;;;;4914879;29;20033;-74
2021/03/27 09:04:51;;;;;;;4.18;1.42;;;8.10;99.90;;;;;;4922993;29;20028;-73
2021/03/27 09:07:45;;;;;;;1.63;0.95;;;8.10;99.90;;;;;;4923754;29;20032;-76
2021/03/27 09:10:40;;;;;;;2.20;1.50;;;8.10;99.90;;;;;;4926534;29;20543;-74
2021/03/27 09:13:27;;;;;;;2.80;1.50;;;8.00;99.90;;;;;;4925752;29;20028;-77
2021/03/27 09:15:53;;;;;;;2.70;1.50;;;7.80;99.90;;;;;;4924774;29;20546;-74
2021/03/27 09:18:31;;;;;;;4.45;2.00;;;7.80;99.90;;;;;;4924089;29;20028;-74
2021/03/27 09:21:32;;;;;;;3.13;1.83;;;7.90;99.90;;;;;;4921569;29;20035;-73
2021/03/27 09:24:13;;;;;;;;;;;8.00;99.90;;;;;;4925323;29;20429;-77
2021/03/27 09:26:59;;;;;;;2.13;1.60;;;7.90;99.90;;;;;;4916805;29;19919;-74
2021/03/27 09:29:45;;;;;;;2.47;1.88;;;8.00;99.90;;;;;;4916816;29;20027;-73
2021/03/27 09:32:25;;;;;;;3.63;2.05;;;8.00;99.90;;;;;;4922708;29;20051;-72
2021/03/27 09:35:04;;;;;;;1.98;1.58;;;8.10;99.90;;;;;;4919522;29;20020;-75
2021/03/27 09:37:59;;;;;;;4.43;2.90;;;8.00;99.90;;;;;;4919840;29;20036;-73
2021/03/27 09:40:31;;;;;;;2.20;1.60;;;8.00;99.90;;;;;;4926410;29;20470;-77
2021/03/27 09:43:18;;;;;;;1.75;1.30;;;8.10;99.90;;;;;;4924574;29;20036;-74
2021/03/27 09:46:02;;;;;;;3.30;2.10;;;8.20;99.90;;;;;;4929908;29;20046;-74
2021/03/27 09:48:56;;;;;;;3.13;1.30;;;8.30;99.90;;;;;;4906387;29;20088;-77
2021/03/27 09:51:48;;;;;;;1.85;1.60;;;8.80;99.90;;;;;;4921682;29;20110;-75
2021/03/27 09:54:23;;;;;;;2.22;1.60;;;8.90;99.90;;;;;;4923136;29;20419;-75
2021/03/27 09:56:54;;;;;;;2.95;1.88;;;9.40;99.90;;;;;;4925933;29;20041;-75
2021/03/27 09:59:43;;;;;;;2.20;1.38;;;9.90;99.90;;;;;;4925100;29;20023;-74
2021/03/27 10:02:31;;;;;;;2.63;2.40;;;9.90;99.90;;;;;;4923413;29;20043;-74
2021/03/27 10:05:29;;;;;;;2.72;1.98;;;9.90;99.90;;;;;;4920076;29;20079;-78
2021/03/27 10:08:19;;;;;;;3.00;1.83;;;9.90;99.90;;;;;;4919560;29;20667;-76
2021/03/27 10:11:03;;;;;;;2.40;1.98;;;9.80;99.90;;;;;;4920259;29;20032;-74
2021/03/27 10:13:40;;;;;;;2.97;1.95;;;9.60;99.90;;;;;;4920521;29;20039;-74
2021/03/27 10:16:12;;;;;;;2.75;2.30;;;9.50;99.90;;;;;;4924175;29;20036;-76
2021/03/27 10:18:54;;;;;;;;;;;9.50;99.90;;;;;;4923889;29;20024;-74
2021/03/27 10:21:37;;;;;;;3.47;2.72;;;9.50;99.90;;;;;;4919606;29;20369;-77
2021/03/27 10:24:11;;;;;;;3.92;2.30;;;9.60;99.90;;;;;;4914566;29;20055;-75
2021/03/27 10:26:51;;;;;;;4.53;3.00;;;9.60;99.90;;;;;;4920389;29;20040;-75
2021/03/27 10:32:29;;;;;;;3.72;2.75;;;9.90;99.90;;;;;;4912028;29;20036;-77
2021/03/27 10:35:33;;;;;;;3.55;2.80;;;10.00;99.90;;;;;;4920565;29;20079;-75
2021/03/27 10:38:10;;;;;;;3.63;2.97;;;10.10;99.90;;;;;;4916607;29;20103;-76
2021/03/27 10:40:57;;;;;;;4.50;3.50;;;10.20;99.90;;;;;;4919137;29;20036;-79
2021/03/27 10:43:54;;;;;;;3.97;3.17;;;11.10;99.90;;;;;;4923068;29;20439;-81
2021/03/27 10:46:27;;;;;;;3.50;2.80;;;12.50;99.90;;;;;;4917861;29;20040;-80
2021/03/27 10:48:56;;;;;;;4.85;3.25;;;13.80;95.80;;;;;;4921637;29;20034;-76
2021/03/27 10:51:37;;;;;;;4.53;3.60;;;14.70;89.80;;;;;;4913358;29;20103;-73
2021/03/27 10:54:41;;;;;;;4.25;2.70;;;15.40;80.20;;;;;;4911178;29;20046;-75
2021/03/27 10:57:07;;;;;;;6.18;3.25;;;15.30;70.40;;;;;;4921885;29;20050;-75
2021/03/27 10:59:59;;;;;;;4.38;3.17;;;14.10;73.40;;;;;;4920598;29;20024;-73
2021/03/27 11:02:51;;;;;;;3.75;3.13;;;13.60;80.20;;;;;;4915711;29;20107;-78
2021/03/27 11:05:40;;;;;;;4.53;2.83;;;12.90;89.70;;;;;;4900445;29;20048;-80
2021/03/27 11:08:08;;;;;;;3.53;2.50;;;11.70;96.70;;;;;;4914764;29;20047;-78
2021/03/27 11:10:45;;;;;;;2.63;2.25;;;11.20;99.30;;;;;;4928882;29;20378;-80
2021/03/27 11:13:26;;;;;;;4.15;2.55;;;10.40;99.90;;;;;;4922925;29;20048;-83
2021/03/27 11:16:06;;;;;;;3.43;2.60;;;9.90;99.90;;;;;;4930232;29;20111;-85
2021/03/27 11:19:09;;;;;;;3.28;2.05;;;10.10;99.90;;;;;;4925092;29;20079;-81
2021/03/27 11:22:18;;;;;;;3.15;2.63;;;11.80;99.90;;;;;;4931065;29;20038;-86
2021/03/27 11:25:36;;;;;;;4.78;2.40;;;14.10;92.40;;;;;;4931927;29;20063;-90
2021/03/27 11:28:34;;;;;;;4.22;2.67;;;16.10;69.20;;;;;;4914886;29;20032;-86
2021/03/27 11:31:34;;;;;;;4.47;2.92;;;17.20;60.90;;;;;;4909150;29;20100;-86
2021/03/27 11:34:27;;;;;;;3.40;2.57;;;18.00;59.90;;;;;;4931770;29;20102;-84
2021/03/27 11:37:26;;;;;;;3.95;2.60;;;19.10;53.60;;;;;;4924020;29;20079;-83
2021/03/27 11:40:33;;;;;;;3.65;2.72;;;20.10;51.00;;;;;;4922661;29;20087;-84
2021/03/27 11:43:04;;;;;;;4.68;3.63;;;20.70;48.10;;;;;;4918836;29;20157;-82
2021/03/27 11:45:46;;;;;;;3.70;2.90;;;19.60;48.50;;;;;;4920680;29;20123;-84
2021/03/27 11:48:22;;;;;;;5.35;3.50;;;17.50;51.40;;;;;;4923997;29;20027;-81
2021/03/27 11:51:13;;;;;;;6.03;3.67;;;16.10;55.60;;;;;;4923961;29;20085;-82
2021/03/27 11:54:01;;;;;;;2.73;2.47;;;14.70;58.50;;;;;;4917715;29;20032;-80
2021/03/27 11:56:52;;;;;;;6.68;3.20;;;15.30;56.50;;;;;;4914072;29;20027;-76
2021/03/27 12:02:44;;;;;;;4.13;3.08;;;17.80;50.60;;;;;;4920004;29;20454;-76
2021/03/27 12:05:28;;;;;;;5.67;3.10;;;17.20;47.00;;;;;;4916089;29;20028;-80
2021/03/27 12:08:22;;;;;;;9.27;3.00;;;15.80;48.50;;;;;;4907288;29;20055;-84
2021/03/27 12:10:51;;;;;;;2.65;2.38;;;;;;;;;;4913723;29;20032;-79
2021/03/27 12:13:43;;;;;;;4.88;3.42;;;15.20;50.30;;;;;;4905582;29;20021;-80
2021/03/27 12:16:51;;;;;;;7.13;3.80;;;15.20;51.40;;;;;;4927644;29;20096;-80
2021/03/27 12:19:26;;;;;;;4.45;2.83;;;15.60;50.30;;;;;;4925282;29;20065;-82
2021/03/27 12:21:54;;;;;;;5.10;3.25;;;17.20;47.60;;;;;;4921938;29;20064;-81
2021/03/27 12:24:48;;;;;;;4.35;3.75;;;18.20;46.00;;;;;;4922894;29;20035;-82
2021/03/27 12:27:39;;;;;;;8.18;6.57;;;19.40;44.00;;;;;;4929205;29;20367;-86
2021/03/27 12:30:08;;;;;;;3.50;3.20;;;20.20;42.80;;;;;;4924032;29;20031;-79
2021/03/27 12:32:58;;;;;;;4.75;3.15;;;20.20;41.90;;;;;;4930396;29;20052;-76
2021/03/27 12:35:31;;;;;;;3.20;2.92;;;19.90;41.50;;;;;;4920241;29;20039;-80
2021/03/27 12:38:06;;;;;;;4.93;3.47;;;18.50;42.50;;;;;;4922269;29;20063;-83
2021/03/27 12:40:39;;;;;;;5.07;3.10;;;18.20;44.20;;;;;;4925266;29;20028;-80
2021/03/27 12:43:15;;;;;;;4.22;3.30;;;17.60;44.80;;;;;;4930420;29;20059;-85
2021/03/27 12:46:08;;;;;;;3.67;2.47;;;16.70;46.00;;;;;;4921742;29;20047;-83
2021/03/27 12:48:48;;;;;;;6.10;3.45;;;17.00;45.40;;;;;;4911860;29;20028;-84
2021/03/27 12:51:26;;;;;;;4.07;2.40;;;17.70;44.90;;;;;;4914300;29;20115;-82
2021/03/27 12:54:07;;;;;;;3.60;1.98;;;17.20;43.40;;;;;;4897736;29;20503;-82
2021/03/27 12:57:10;;;;;;;3.15;2.03;;;17.20;43.80;;;;;;4919191;29;20115;-82
2021/03/27 12:59:51;;;;;;;4.80;3.67;;;16.10;45.70;;;;;;4919630;29;20036;-81
2021/03/27 13:02:39;;;;;;;5.28;2.55;;;16.10;46.40;;;;;;4918444;29;20027;-82
2021/03/27 13:05:36;;;;;;;5.97;2.28;;;14.00;53.80;;;;;;4918283;29;20036;-81
2021/03/27 13:08:35;;;;;;;3.55;2.22;;;13.00;62.20;;;;;;4920698;29;20036;-82
2021/03/27 13:11:36;;;;;;;2.58;1.95;;;12.80;65.00;;;;;;4921283;29;20111;-80
2021/03/27 13:14:39;;;;;;;4.47;3.08;;;11.70;90.70;;;;;;4906207;29;20486;-79
2021/03/27 13:17:16;;;;;;;1.98;1.70;;;11.40;95.30;;;;;;4918432;29;20036;-78
2021/03/27 13:19:58;;;;;;;3.65;1.85;;;10.60;97.20;;;;;;4926691;29;20026;-80
2021/03/27 13:22:34;;;;;;;3.80;1.70;;;10.60;97.50;;;;;;4932273;29;20034;-82
2021/03/27 13:25:24;;;;;;;2.13;1.58;;;10.50;98.50;;;;;;4931120;29;20032;-79
2021/03/27 13:28:13;;;;;;;3.00;2.17;;;10.40;97.90;;;;;;4926700;29;20055;-80
2021/03/27 13:30:54;;;;;;;3.00;2.00;;;10.10;98.80;;;;;;4927135;29;20059;-79
2021/03/27 13:33:43;;;;;;;3.17;2.00;;;10.70;98.70;;;;;;4932091;29;20056;-82
2021/03/27 13:36:12;;;;;;;5.05;2.55;;;10.70;98.50;;;;;;4877283;29;20096;-81
2021/03/27 13:39:00;;;;;;;4.25;2.50;;;11.20;96.10;;;;;;4929550;29;20044;-79
2021/03/27 13:42:03;;;;;;;4.65;2.25;;;11.00;96.10;;;;;;4928940;29;20454;-78
2021/03/27 13:44:50;;;;;;;3.88;2.00;;;10.70;97.40;;;;;;4918643;29;20386;-79
2021/03/27 13:47:37;;;;;;;4.45;1.98;;;10.20;99.90;;;;;;4902662;29;20036;-82
2021/03/27 13:50:27;;;;;;;2.22;1.88;;;10.20;99.90;;;;;;4890981;29;20478;-80
2021/03/27 13:53:09;;;;;;;3.45;2.15;;;;;;;;;;4910938;29;20119;-79
2021/03/27 13:55:54;;;;;;;2.38;1.38;;;10.20;99.90;;;;;;4897145;29;20076;-79
2021/03/27 13:58:43;;;;;;;2.20;1.60;;;10.20;99.60;;;;;;4897890;29;20045;-79
2021/03/27 14:01:32;;;;;;;3.45;1.95;;;9.80;99.90;;;;;;4913200;29;20028;-84
2021/03/27 14:04:16;;;;;;;2.00;1.50;;;9.80;99.90;;;;;;4907306;29;20048;-80
2021/03/27 14:07:02;;;;;;;2.47;1.27;;;9.50;98.80;;;;;;4900741;29;20107;-80
2021/03/27 14:09:50;;;;;;;1.75;1.10;;;9.30;99.70;;;;;;4904724;29;20037;-81
2021/03/27 14:12:24;;;;;;;1.88;1.17;;;9.30;99.90;;;;;;4905961;29;20436;-78
2021/03/27 14:15:05;;;;;;;2.13;1.38;;;9.40;99.90;;;;;;4908723;29;20036;-79
2021/03/27 14:17:55;;;;;;;2.07;1.37;;;9.40;99.90;;;;;;4900764;29;20447;-81
2021/03/27 14:20:56;;;;;;;2.70;1.30;;;9.30;99.90;;;;;;4919220;29;20038;-80
2021/03/27 14:23:41;;;;;;;1.30;1.02;;;9.40;99.90;;;;;;4919800;29;20896;-78
2021/03/27 14:26:22;;;;;;;3.90;2.88;;;9.20;99.90;;;;;;4899162;29;20064;-81